Divide, Montana
Current Conditions -  °F | °C
As of 8:53 AM on Friday 24 Oct 2014 (Local Time) from KBTM Reporting Station
Overcast Overcast  
Wind Chill: 41°   Ceiling: 4800
Heat Index: 45°   Visibility: 10mi
Dew Point: 34°   Wind: 8mph
Humidity: 65%   Direction: 260°W
Pressure: 30.12"   Gusts: NA
Location:  45.75°N, 112.74°W
Report Text: KBTM 241453Z AUTO 26007KT 10SM BKN048 OVC070 07/01 A3012 RMK AO2 SLP185 T00720011 53013
Loading
Personal Weather Stations






























Interactive Weather Map
Tropical Storm Tracking
New forecast layout! Learn more

10-Day Weather Forecast

Advertisements
Track Severe Weather on mobile